createdAt,value
2023-05-16T00:00:06.981Z,6.28
2023-05-16T00:01:39.669Z,5.40
2023-05-16T00:03:13.051Z,6.07
2023-05-16T00:04:47.647Z,6.03
2023-05-16T00:06:21.188Z,6.63
2023-05-16T00:07:54.482Z,5.30
2023-05-16T00:09:27.841Z,6.47
2023-05-16T00:10:59.981Z,5.70
2023-05-16T00:12:33.197Z,5.97
2023-05-16T00:14:06.639Z,6.18
2023-05-16T00:15:41.195Z,6.95
2023-05-16T00:17:14.632Z,6.13
2023-05-16T00:18:48.340Z,6.18
2023-05-16T00:20:23.777Z,6.63
2023-05-16T00:21:57.040Z,7.25
2023-05-16T00:23:30.175Z,7.35
2023-05-16T00:25:03.689Z,6.47
2023-05-16T00:26:37.089Z,6.70
2023-05-16T00:28:10.289Z,5.88
2023-05-16T00:29:43.695Z,6.35
2023-05-16T00:31:18.403Z,5.90
2023-05-16T00:32:51.695Z,7.90
2023-05-16T00:34:25.397Z,6.57
2023-05-16T00:35:57.968Z,7.13
2023-05-16T00:37:31.151Z,5.80
2023-05-16T00:39:04.355Z,6.45
2023-05-16T00:40:37.474Z,5.80
2023-05-16T00:42:10.599Z,6.70
2023-05-16T00:43:45.124Z,6.35
2023-05-16T00:45:19.082Z,6.32
2023-05-16T00:46:53.854Z,6.80
2023-05-16T00:48:27.298Z,6.93
2023-05-16T00:49:59.677Z,5.63
2023-05-16T00:51:32.990Z,6.05
2023-05-16T00:53:06.289Z,5.75
2023-05-16T00:54:39.604Z,6.32
2023-05-16T00:56:13.002Z,5.75
2023-05-16T00:57:45.516Z,5.13
2023-05-16T00:59:18.821Z,5.78
2023-05-16T01:00:52.135Z,5.97
2023-05-16T01:02:29.136Z,5.40
2023-05-16T01:04:02.727Z,5.70
2023-05-16T01:05:35.932Z,5.70
2023-05-16T01:07:09.080Z,6.43
2023-05-16T01:08:42.325Z,5.97
2023-05-16T01:10:16.473Z,6.15
2023-05-16T01:11:55.206Z,6.07
2023-05-16T01:13:34.995Z,6.00
2023-05-16T01:15:10.988Z,5.40
2023-05-16T01:16:50.935Z,4.90
2023-05-16T01:18:32.227Z,6.10
2023-05-16T01:20:15.473Z,5.00
2023-05-16T01:21:51.328Z,5.75
2023-05-16T01:23:43.121Z,5.82
2023-05-16T01:25:29.148Z,5.32
2023-05-16T01:27:06.191Z,6.30
2023-05-16T01:28:41.360Z,8.40
2023-05-16T01:30:19.183Z,10.15
2023-05-16T01:31:52.461Z,8.48
2023-05-16T01:33:27.826Z,6.05
2023-05-16T01:35:01.349Z,5.72
2023-05-16T01:36:42.505Z,5.07
2023-05-16T01:38:25.181Z,6.40
2023-05-16T01:40:07.991Z,6.20
2023-05-16T01:41:48.760Z,6.25
2023-05-16T01:43:32.400Z,5.57
2023-05-16T01:45:10.202Z,6.13
2023-05-16T01:46:47.105Z,5.50
2023-05-16T01:48:24.123Z,6.15
2023-05-16T01:50:04.666Z,5.47
2023-05-16T01:51:40.793Z,5.65
2023-05-16T01:53:20.148Z,4.63
2023-05-16T01:54:55.487Z,5.50
2023-05-16T01:56:29.908Z,5.28
2023-05-16T01:58:05.719Z,5.93
2023-05-16T01:59:42.993Z,6.43
2023-05-16T02:01:15.828Z,6.07
2023-05-16T02:02:49.001Z,5.78
2023-05-16T02:04:24.456Z,5.20
2023-05-16T02:05:57.680Z,5.78
2023-05-16T02:07:30.958Z,5.95
2023-05-16T02:09:03.253Z,6.30
2023-05-16T02:10:36.610Z,6.70
2023-05-16T02:12:09.837Z,7.82
2023-05-16T02:13:43.034Z,8.32
2023-05-16T02:15:17.716Z,7.10
2023-05-16T02:16:50.967Z,8.98
2023-05-16T02:18:24.737Z,7.68
2023-05-16T02:19:57.854Z,6.43
2023-05-16T02:21:31.333Z,6.90
2023-05-16T02:23:05.013Z,6.88
2023-05-16T02:24:38.795Z,7.15
2023-05-16T02:26:11.913Z,7.82
2023-05-16T02:27:45.081Z,6.63
2023-05-16T02:29:18.574Z,6.82
2023-05-16T02:30:59.052Z,7.03
2023-05-16T02:32:32.251Z,6.43
2023-05-16T02:34:05.605Z,7.07
2023-05-16T02:35:38.902Z,7.30
2023-05-16T02:37:13.484Z,7.45
2023-05-16T02:38:46.715Z,7.78
2023-05-16T02:40:20.505Z,7.53
2023-05-16T02:41:53.814Z,7.18
2023-05-16T02:43:27.073Z,7.32
2023-05-16T02:45:00.265Z,7.15
2023-05-16T02:46:35.843Z,6.57
2023-05-16T02:48:10.668Z,8.27
2023-05-16T02:49:44.024Z,7.50
2023-05-16T02:51:16.174Z,6.88
2023-05-16T02:52:49.698Z,6.55
2023-05-16T02:54:22.976Z,7.20
2023-05-16T02:55:55.239Z,6.70
2023-05-16T02:57:28.372Z,7.57
2023-05-16T02:59:01.602Z,6.55
2023-05-16T03:00:35.367Z,6.65
2023-05-16T03:02:10.002Z,7.05
2023-05-16T03:03:43.445Z,7.15
2023-05-16T03:05:17.121Z,7.82
2023-05-16T03:06:51.288Z,7.15
2023-05-16T03:08:24.524Z,6.97
2023-05-16T03:09:57.611Z,7.30
2023-05-16T03:11:29.927Z,8.05
2023-05-16T03:13:03.261Z,7.25
2023-05-16T03:14:36.410Z,7.03
2023-05-16T03:16:09.724Z,8.13
2023-05-16T03:17:44.302Z,8.07
2023-05-16T03:19:17.703Z,7.07
2023-05-16T03:20:53.140Z,7.55
2023-05-16T03:22:26.325Z,7.55
2023-05-16T03:23:59.647Z,7.05
2023-05-16T03:25:33.194Z,6.57
2023-05-16T03:27:06.911Z,6.70
2023-05-16T03:28:39.066Z,7.30
2023-05-16T03:30:14.117Z,6.78
2023-05-16T03:31:47.477Z,6.50
2023-05-16T03:33:22.107Z,7.03
2023-05-16T03:34:55.195Z,6.40
2023-05-16T03:36:29.771Z,7.15
2023-05-16T03:38:03.165Z,5.65
2023-05-16T03:39:36.267Z,6.82
2023-05-16T03:41:09.407Z,6.97
2023-05-16T03:42:42.630Z,6.78
2023-05-16T03:44:15.903Z,8.00
2023-05-16T03:45:48.089Z,7.97
2023-05-16T03:47:21.251Z,6.22
2023-05-16T03:48:55.749Z,7.50
2023-05-16T03:50:29.297Z,8.10
2023-05-16T03:52:02.414Z,8.50
2023-05-16T03:53:35.560Z,7.35
2023-05-16T03:55:09.374Z,7.45
2023-05-16T03:56:42.657Z,7.28
2023-05-16T03:58:16.637Z,7.43
2023-05-16T03:59:49.796Z,7.13
2023-05-16T04:01:22.895Z,10.18
2023-05-16T04:02:56.264Z,9.20
2023-05-16T04:04:30.930Z,8.55
2023-05-16T04:06:04.311Z,8.80
2023-05-16T04:07:37.727Z,7.95
2023-05-16T04:09:11.022Z,8.20
2023-05-16T04:10:44.211Z,7.78
2023-05-16T04:12:16.645Z,7.70
2023-05-16T04:13:50.133Z,6.88
2023-05-16T04:15:22.444Z,7.38
2023-05-16T04:16:55.630Z,6.88
2023-05-16T04:18:28.806Z,8.18
2023-05-16T04:20:04.404Z,9.10
2023-05-16T04:21:37.755Z,7.65
2023-05-16T04:23:12.106Z,6.93
2023-05-16T04:24:45.231Z,6.85
2023-05-16T04:26:18.396Z,6.70
2023-05-16T04:27:50.947Z,7.45
2023-05-16T04:29:24.168Z,6.55
2023-05-16T04:30:57.301Z,6.80
2023-05-16T04:32:30.659Z,7.85
2023-05-16T04:34:03.985Z,6.70
2023-05-16T04:35:38.770Z,7.50
2023-05-16T04:37:11.987Z,6.93
2023-05-16T04:38:46.939Z,7.15
2023-05-16T04:40:19.370Z,6.40
2023-05-16T04:41:53.037Z,5.43
2023-05-16T04:43:26.386Z,5.57
2023-05-16T04:44:59.605Z,5.40
2023-05-16T04:46:32.867Z,4.80
2023-05-16T04:48:06.345Z,5.72
2023-05-16T04:49:39.668Z,5.53
2023-05-16T04:51:14.313Z,6.10
2023-05-16T04:52:47.500Z,5.03
2023-05-16T04:54:20.837Z,5.40
2023-05-16T04:55:54.483Z,6.30
2023-05-16T04:57:28.376Z,7.45
2023-05-16T04:59:01.718Z,6.80
2023-05-16T05:00:34.925Z,8.85
2023-05-16T05:02:08.325Z,8.85
2023-05-16T05:03:41.558Z,8.30
2023-05-16T05:05:15.022Z,8.43
2023-05-16T05:06:49.611Z,7.45
2023-05-16T05:08:23.520Z,7.00
2023-05-16T05:09:57.083Z,8.30
2023-05-16T05:11:30.245Z,7.38
2023-05-16T05:13:03.751Z,7.35
2023-05-16T05:14:35.899Z,8.10
2023-05-16T05:16:09.059Z,7.35
2023-05-16T05:17:42.298Z,8.80
2023-05-16T05:19:15.498Z,6.97
2023-05-16T05:20:48.818Z,7.28
2023-05-16T05:22:23.328Z,6.55
2023-05-16T05:23:56.508Z,6.47
2023-05-16T05:25:29.753Z,6.05
2023-05-16T05:27:03.249Z,5.38
2023-05-16T05:28:37.800Z,6.20
2023-05-16T05:30:11.705Z,6.07
2023-05-16T05:31:44.963Z,5.80
2023-05-16T05:33:19.294Z,7.13
2023-05-16T05:34:52.654Z,6.25
2023-05-16T05:36:25.975Z,6.53
2023-05-16T05:38:00.567Z,7.35
2023-05-16T05:39:33.761Z,7.30
2023-05-16T05:41:07.571Z,6.30
2023-05-16T05:42:40.768Z,6.45
2023-05-16T05:44:13.972Z,6.97
2023-05-16T05:45:47.559Z,7.20
2023-05-16T05:47:21.807Z,6.03
2023-05-16T05:48:54.965Z,7.53
2023-05-16T05:50:28.200Z,7.97
2023-05-16T05:52:01.422Z,7.70
2023-05-16T05:53:36.265Z,8.40
2023-05-16T05:55:10.170Z,7.50
2023-05-16T05:56:43.268Z,8.10
2023-05-16T05:58:18.224Z,7.70
2023-05-16T05:59:51.520Z,8.02
2023-05-16T06:01:24.959Z,6.15
2023-05-16T06:02:58.187Z,6.68
2023-05-16T06:04:31.415Z,7.00
2023-05-16T06:06:06.043Z,6.60
2023-05-16T06:07:39.355Z,6.90
2023-05-16T06:09:15.106Z,7.57
2023-05-16T06:10:49.146Z,6.75
2023-05-16T06:12:22.318Z,6.40
2023-05-16T06:13:55.718Z,6.75
2023-05-16T06:15:29.059Z,7.22
2023-05-16T06:17:02.704Z,6.75
2023-05-16T06:18:35.918Z,7.10
2023-05-16T06:20:09.967Z,7.20
2023-05-16T06:21:43.299Z,8.15
2023-05-16T06:23:16.796Z,7.50
2023-05-16T06:24:51.630Z,6.97
2023-05-16T06:26:24.851Z,6.72
2023-05-16T06:27:58.056Z,6.45
2023-05-16T06:29:31.624Z,7.25
2023-05-16T06:31:04.957Z,6.38
2023-05-16T06:32:38.490Z,7.05
2023-05-16T06:34:11.739Z,7.03
2023-05-16T06:35:45.197Z,6.90
2023-05-16T06:37:18.419Z,7.00
2023-05-16T06:38:51.902Z,6.97
2023-05-16T06:40:26.475Z,7.53
2023-05-16T06:41:59.866Z,7.40
2023-05-16T06:43:38.307Z,7.47
2023-05-16T06:45:12.276Z,7.28
2023-05-16T06:46:45.625Z,7.25
2023-05-16T06:48:20.394Z,7.47
2023-05-16T06:49:53.708Z,8.10
2023-05-16T06:51:26.949Z,7.93
2023-05-16T06:53:00.790Z,6.82
2023-05-16T06:54:34.237Z,6.95
2023-05-16T06:56:08.969Z,7.75
2023-05-16T06:57:42.142Z,7.05
2023-05-16T06:59:15.390Z,7.13
2023-05-16T07:00:51.407Z,7.38
2023-05-16T07:02:24.636Z,6.35
2023-05-16T07:03:58.132Z,7.50
2023-05-16T07:05:31.515Z,7.85
2023-05-16T07:07:04.976Z,7.95
2023-05-16T07:08:38.292Z,6.80
2023-05-16T07:10:12.528Z,6.70
2023-05-16T07:11:47.109Z,8.30
2023-05-16T07:13:20.722Z,7.55
2023-05-16T07:14:54.136Z,7.50
2023-05-16T07:16:28.617Z,7.25
2023-05-16T07:18:02.092Z,8.02
2023-05-16T07:19:35.593Z,8.60
2023-05-16T07:21:08.748Z,7.30
2023-05-16T07:22:42.219Z,7.28
2023-05-16T07:24:15.367Z,7.70
2023-05-16T07:25:49.156Z,7.28
2023-05-16T07:27:23.862Z,7.18
2023-05-16T07:28:57.169Z,6.75
2023-05-16T07:30:30.683Z,7.03
2023-05-16T07:32:04.402Z,9.02
2023-05-16T07:33:37.598Z,8.13
2023-05-16T07:35:13.408Z,10.77
2023-05-16T07:36:46.609Z,9.60
2023-05-16T07:38:20.203Z,8.30
2023-05-16T07:39:53.407Z,7.85
2023-05-16T07:41:27.179Z,6.88
2023-05-16T07:43:02.857Z,7.85
2023-05-16T07:44:36.525Z,7.05
2023-05-16T07:46:09.736Z,7.75
2023-05-16T07:47:42.995Z,7.93
2023-05-16T07:49:16.266Z,7.70
2023-05-16T07:50:49.881Z,8.30
2023-05-16T07:52:23.025Z,7.47
2023-05-16T07:53:56.198Z,7.65
2023-05-16T07:55:29.625Z,7.00
2023-05-16T07:57:03.431Z,7.45
2023-05-16T07:58:40.093Z,8.00
2023-05-16T08:00:14.844Z,8.60
2023-05-16T08:01:48.189Z,8.93
2023-05-16T08:03:21.954Z,8.40
2023-05-16T08:04:55.442Z,8.63
2023-05-16T08:06:29.849Z,7.75
2023-05-16T08:08:03.016Z,9.13
2023-05-16T08:09:36.462Z,7.35
2023-05-16T08:11:09.669Z,7.60
2023-05-16T08:12:43.056Z,7.95
2023-05-16T08:14:17.644Z,8.60
2023-05-16T08:15:51.308Z,7.95
2023-05-16T08:17:24.474Z,7.90
2023-05-16T08:18:57.820Z,8.15
2023-05-16T08:20:31.063Z,8.07
2023-05-16T08:22:04.340Z,8.85
2023-05-16T08:23:37.568Z,8.77
2023-05-16T08:25:11.196Z,8.73
2023-05-16T08:26:44.341Z,7.47
2023-05-16T08:28:17.916Z,7.72
2023-05-16T08:29:52.493Z,9.52
2023-05-16T08:31:25.909Z,8.55
2023-05-16T08:32:59.164Z,7.47
2023-05-16T08:34:33.079Z,10.27
2023-05-16T08:36:07.220Z,8.48
2023-05-16T08:37:40.524Z,7.82
2023-05-16T08:39:13.911Z,7.32
2023-05-16T08:40:47.413Z,7.43
2023-05-16T08:42:20.800Z,7.60
2023-05-16T08:43:54.173Z,6.95
2023-05-16T08:45:29.803Z,7.82
2023-05-16T08:47:12.367Z,7.60
2023-05-16T08:48:48.528Z,7.80
2023-05-16T08:50:22.805Z,7.45
2023-05-16T08:51:59.388Z,8.00
2023-05-16T08:53:37.585Z,8.52
2023-05-16T08:55:12.295Z,8.52
2023-05-16T08:56:46.902Z,8.18
2023-05-16T08:58:21.669Z,8.38
2023-05-16T08:59:59.261Z,7.63
2023-05-16T09:01:34.448Z,8.93
2023-05-16T09:03:08.110Z,9.15
2023-05-16T09:04:42.578Z,10.52
2023-05-16T09:06:16.170Z,9.00
2023-05-16T09:07:49.382Z,9.00
2023-05-16T09:09:22.544Z,8.93
2023-05-16T09:10:56.271Z,7.60
2023-05-16T09:12:29.811Z,7.45
2023-05-16T09:14:02.985Z,7.80
2023-05-16T09:15:36.210Z,8.73
2023-05-16T09:17:12.984Z,10.80
2023-05-16T09:18:50.615Z,9.60
2023-05-16T09:20:23.865Z,9.73
2023-05-16T09:21:57.141Z,8.52
2023-05-16T09:23:30.857Z,8.40
2023-05-16T09:25:06.949Z,6.63
2023-05-16T09:26:41.988Z,5.80
2023-05-16T09:28:15.661Z,7.40
2023-05-16T09:29:52.976Z,7.15
2023-05-16T09:31:30.801Z,8.77
2023-05-16T09:33:08.200Z,9.63
2023-05-16T09:34:45.364Z,7.55
2023-05-16T09:36:18.910Z,8.45
2023-05-16T09:37:53.541Z,10.32
2023-05-16T09:39:27.842Z,16.73
2023-05-16T09:41:01.067Z,13.20
2023-05-16T09:42:34.646Z,10.85
2023-05-16T09:44:08.323Z,8.82
2023-05-16T09:45:47.860Z,8.93
2023-05-16T09:47:22.186Z,8.93
2023-05-16T09:48:57.395Z,9.15
2023-05-16T09:50:30.762Z,9.18
2023-05-16T09:52:04.756Z,8.95
2023-05-16T09:53:39.942Z,9.30
2023-05-16T09:55:13.150Z,8.43
2023-05-16T09:56:52.850Z,7.72
2023-05-16T09:58:30.269Z,8.40
2023-05-16T10:00:08.455Z,8.30
2023-05-16T10:01:42.542Z,6.65
2023-05-16T10:03:17.094Z,7.88
2023-05-16T10:04:51.733Z,8.00
2023-05-16T10:06:25.246Z,7.70
2023-05-16T10:07:59.055Z,6.88
2023-05-16T10:09:33.896Z,7.10
2023-05-16T10:11:07.883Z,6.40
2023-05-16T10:12:42.316Z,6.30
2023-05-16T10:14:19.009Z,6.72
2023-05-16T10:15:55.760Z,6.72
2023-05-16T10:17:32.451Z,6.65
2023-05-16T10:19:06.616Z,7.28
2023-05-16T10:20:43.990Z,6.68
2023-05-16T10:22:18.284Z,6.88
2023-05-16T10:23:53.774Z,6.03
2023-05-16T10:25:33.352Z,5.97
2023-05-16T10:27:07.332Z,6.25
2023-05-16T10:28:41.756Z,5.97
2023-05-16T10:30:17.453Z,5.90
2023-05-16T10:31:51.076Z,7.05
2023-05-16T10:33:24.807Z,6.18
2023-05-16T10:35:01.285Z,6.60
2023-05-16T10:36:36.034Z,5.95
2023-05-16T10:38:12.124Z,6.30
2023-05-16T10:39:46.026Z,5.88
2023-05-16T10:41:22.037Z,5.68
2023-05-16T10:42:58.510Z,7.28
2023-05-16T10:44:33.902Z,7.50
2023-05-16T10:46:12.335Z,6.85
2023-05-16T10:47:53.503Z,10.00
2023-05-16T10:49:28.925Z,8.57
2023-05-16T10:51:04.124Z,8.60
2023-05-16T10:52:38.837Z,7.55
2023-05-16T10:54:15.104Z,8.18
2023-05-16T10:56:06.302Z,7.18
2023-05-16T10:57:40.052Z,7.40
2023-05-16T10:59:27.209Z,7.10
2023-05-16T11:01:34.303Z,6.60
2023-05-16T11:03:08.088Z,7.07
2023-05-16T11:04:49.711Z,7.80
2023-05-16T11:06:24.904Z,7.65
2023-05-16T11:08:07.382Z,7.20
2023-05-16T11:09:45.508Z,7.82
2023-05-16T11:11:50.036Z,7.63
2023-05-16T11:13:26.135Z,7.05
2023-05-16T11:15:00.716Z,7.65
2023-05-16T11:16:35.804Z,6.82
2023-05-16T11:18:11.287Z,6.43
2023-05-16T11:19:46.128Z,6.82
2023-05-16T11:21:19.312Z,6.53
2023-05-16T11:22:52.886Z,5.95
2023-05-16T11:24:31.530Z,6.45
2023-05-16T11:26:04.876Z,7.35
2023-05-16T11:27:45.341Z,6.80
2023-05-16T11:29:18.918Z,6.65
2023-05-16T11:30:55.315Z,5.70
2023-05-16T11:32:28.718Z,6.80
2023-05-16T11:34:02.171Z,6.15
2023-05-16T11:35:35.435Z,6.00
2023-05-16T11:37:11.748Z,4.68
2023-05-16T11:38:44.971Z,4.93
2023-05-16T11:40:19.552Z,4.82
2023-05-16T11:41:55.862Z,5.45
2023-05-16T11:43:29.167Z,4.30
2023-05-16T11:45:07.427Z,4.63
2023-05-16T11:46:41.920Z,4.28
2023-05-16T11:48:24.696Z,4.18
2023-05-16T11:49:59.125Z,4.50
2023-05-16T11:51:32.540Z,4.18
2023-05-16T11:53:05.749Z,4.60
2023-05-16T11:54:39.578Z,4.15
2023-05-16T11:56:14.350Z,5.25
2023-05-16T11:57:48.031Z,4.53
2023-05-16T11:59:21.782Z,4.72
2023-05-16T12:00:56.022Z,4.88
2023-05-16T12:02:31.147Z,4.10
2023-05-16T12:04:09.236Z,4.65
2023-05-16T12:05:53.376Z,4.25
2023-05-16T12:07:29.567Z,4.75
2023-05-16T12:09:10.263Z,4.97
2023-05-16T12:10:43.722Z,4.80
2023-05-16T12:12:22.063Z,5.53
2023-05-16T12:13:55.891Z,4.63
2023-05-16T12:15:29.904Z,4.32
2023-05-16T12:17:04.826Z,4.82
2023-05-16T12:18:41.217Z,4.50
2023-05-16T12:20:17.465Z,5.22
2023-05-16T12:21:54.398Z,4.07
2023-05-16T12:23:29.367Z,3.97
2023-05-16T12:25:27.744Z,4.85
2023-05-16T12:27:01.383Z,4.60
2023-05-16T12:28:39.327Z,4.53
2023-05-16T12:30:13.760Z,5.00
2023-05-16T12:31:47.401Z,5.03
2023-05-16T12:33:21.976Z,4.88
2023-05-16T12:34:56.333Z,4.85
2023-05-16T12:36:33.552Z,5.05
2023-05-16T12:38:07.896Z,4.78
2023-05-16T12:39:41.096Z,4.57
2023-05-16T12:41:19.334Z,4.88
2023-05-16T12:42:53.190Z,4.82
2023-05-16T12:44:31.631Z,4.40
2023-05-16T12:46:11.776Z,5.10
2023-05-16T12:47:45.273Z,4.30
2023-05-16T12:49:21.791Z,5.63
2023-05-16T12:50:55.417Z,3.38
2023-05-16T12:52:30.594Z,2.88
2023-05-16T12:54:11.248Z,3.50
2023-05-16T12:55:45.508Z,3.15
2023-05-16T12:57:20.109Z,3.85
2023-05-16T12:58:53.364Z,5.75
2023-05-16T13:00:28.112Z,4.88
2023-05-16T13:02:01.574Z,5.00
2023-05-16T13:03:36.391Z,4.68
2023-05-16T13:05:10.437Z,3.83
2023-05-16T13:06:56.528Z,4.53
2023-05-16T13:08:32.080Z,3.58
2023-05-16T13:10:06.476Z,3.85
2023-05-16T13:11:39.679Z,3.22
2023-05-16T13:13:15.167Z,4.55
2023-05-16T13:14:52.644Z,3.78
2023-05-16T13:16:27.565Z,4.10
2023-05-16T13:18:00.729Z,3.28
2023-05-16T13:19:34.549Z,3.05
2023-05-16T13:21:07.979Z,2.72
2023-05-16T13:22:42.153Z,3.10
2023-05-16T13:24:15.383Z,2.63
2023-05-16T13:25:49.663Z,2.08
2023-05-16T13:27:23.025Z,2.60
2023-05-16T13:28:57.021Z,3.20
2023-05-16T13:30:30.765Z,2.20
2023-05-16T13:32:08.786Z,2.13
2023-05-16T13:33:41.961Z,2.22
2023-05-16T13:35:16.183Z,2.22
2023-05-16T13:36:54.399Z,2.78
2023-05-16T13:38:28.211Z,3.20
2023-05-16T13:40:01.464Z,2.33
2023-05-16T13:41:37.818Z,2.47
2023-05-16T13:43:11.267Z,2.90
2023-05-16T13:44:45.004Z,2.55
2023-05-16T13:46:19.037Z,2.50
2023-05-16T13:47:53.940Z,2.47
2023-05-16T13:49:30.104Z,2.85
2023-05-16T13:51:03.319Z,2.42
2023-05-16T13:52:37.847Z,2.63
2023-05-16T13:54:11.827Z,1.83
2023-05-16T13:55:45.138Z,2.13
2023-05-16T13:57:18.329Z,2.08
2023-05-16T13:59:02.238Z,2.00
2023-05-16T14:00:45.102Z,2.00
2023-05-16T14:02:19.410Z,1.70
2023-05-16T14:03:54.007Z,2.45
2023-05-16T14:05:27.451Z,2.15
2023-05-16T14:07:01.396Z,2.50
2023-05-16T14:08:34.861Z,2.80
2023-05-16T14:10:09.836Z,2.28
2023-05-16T14:11:43.014Z,2.25
2023-05-16T14:13:16.375Z,2.22
2023-05-16T14:14:49.735Z,2.13
2023-05-16T14:16:23.063Z,2.20
2023-05-16T14:17:56.304Z,2.03
2023-05-16T14:19:31.549Z,2.58
2023-05-16T14:21:05.036Z,1.80
2023-05-16T14:22:38.586Z,1.75
2023-05-16T14:24:12.043Z,2.08
2023-05-16T14:25:45.439Z,2.58
2023-05-16T14:27:18.670Z,2.08
2023-05-16T14:28:51.881Z,2.53
2023-05-16T14:30:25.012Z,2.22
2023-05-16T14:31:58.369Z,3.03
2023-05-16T14:33:33.067Z,2.67
2023-05-16T14:35:09.610Z,2.63
2023-05-16T14:36:43.750Z,2.25
2023-05-16T14:38:17.152Z,2.42
2023-05-16T14:39:50.756Z,2.40
2023-05-16T14:41:23.886Z,3.55
2023-05-16T14:42:57.175Z,2.90
2023-05-16T14:44:30.755Z,4.32
2023-05-16T14:46:03.931Z,3.90
2023-05-16T14:47:37.803Z,2.60
2023-05-16T14:49:11.203Z,3.15
2023-05-16T14:50:46.161Z,3.40
2023-05-16T14:52:19.405Z,2.72
2023-05-16T14:53:52.579Z,2.30
2023-05-16T14:55:26.046Z,3.13
2023-05-16T14:57:00.237Z,2.90
2023-05-16T14:58:34.827Z,2.90
2023-05-16T15:00:10.834Z,3.00
2023-05-16T15:01:44.008Z,2.50
2023-05-16T15:03:18.344Z,2.33
2023-05-16T15:04:51.832Z,2.80
2023-05-16T15:06:26.462Z,3.22
2023-05-16T15:08:00.611Z,2.95
2023-05-16T15:09:34.027Z,3.50
2023-05-16T15:11:07.226Z,3.17
2023-05-16T15:12:41.149Z,3.97
2023-05-16T15:14:14.415Z,2.33
2023-05-16T15:15:47.937Z,2.83
2023-05-16T15:17:21.231Z,2.45
2023-05-16T15:18:54.607Z,2.67
2023-05-16T15:20:28.293Z,3.45
2023-05-16T15:22:03.549Z,3.35
2023-05-16T15:23:36.863Z,3.40
2023-05-16T15:25:10.963Z,2.83
2023-05-16T15:26:44.582Z,2.33
2023-05-16T15:28:21.821Z,2.35
2023-05-16T15:29:55.805Z,2.95
2023-05-16T15:31:29.717Z,2.22
2023-05-16T15:33:03.018Z,2.20
2023-05-16T15:34:36.882Z,2.65
2023-05-16T15:36:10.120Z,2.78
2023-05-16T15:37:44.902Z,2.90
2023-05-16T15:39:18.113Z,3.00
2023-05-16T15:41:01.545Z,3.85
2023-05-16T15:42:45.408Z,4.97
2023-05-16T15:44:18.547Z,2.90
2023-05-16T15:45:51.916Z,3.92
2023-05-16T15:47:25.285Z,3.17
2023-05-16T15:48:58.607Z,3.22
2023-05-16T15:50:31.893Z,3.08
2023-05-16T15:52:05.604Z,2.78
2023-05-16T15:53:40.452Z,2.60
2023-05-16T15:55:13.656Z,2.75
2023-05-16T15:56:46.984Z,3.35
2023-05-16T15:58:22.637Z,2.90
2023-05-16T15:59:56.034Z,2.72
2023-05-16T16:01:29.496Z,3.10
2023-05-16T16:03:02.988Z,3.80
2023-05-16T16:04:36.322Z,3.75
2023-05-16T16:06:09.547Z,3.42
2023-05-16T16:07:43.070Z,3.72
2023-05-16T16:09:18.523Z,3.47
2023-05-16T16:10:52.098Z,3.80
2023-05-16T16:12:25.300Z,3.20
2023-05-16T16:13:58.567Z,3.03
2023-05-16T16:15:33.506Z,4.75
2023-05-16T16:17:07.229Z,2.95
2023-05-16T16:18:40.499Z,2.53
2023-05-16T16:20:13.770Z,2.60
2023-05-16T16:21:47.215Z,2.60
2023-05-16T16:23:20.742Z,2.20
2023-05-16T16:24:56.146Z,2.83
2023-05-16T16:26:29.491Z,3.00
2023-05-16T16:28:02.713Z,3.03
2023-05-16T16:29:36.098Z,2.42
2023-05-16T16:31:09.336Z,2.72
2023-05-16T16:32:42.576Z,2.67
2023-05-16T16:34:15.778Z,2.63
2023-05-16T16:35:49.228Z,2.10
2023-05-16T16:37:22.351Z,2.28
2023-05-16T16:38:56.301Z,3.03
2023-05-16T16:40:31.118Z,3.38
2023-05-16T16:42:04.505Z,2.83
2023-05-16T16:43:39.845Z,3.22
2023-05-16T16:45:13.244Z,2.63
2023-05-16T16:46:46.490Z,3.33
2023-05-16T16:48:19.932Z,3.03
2023-05-16T16:49:53.406Z,3.28
2023-05-16T16:51:29.985Z,3.97
2023-05-16T16:53:04.558Z,5.05
2023-05-16T16:54:37.994Z,4.07
2023-05-16T16:56:12.542Z,5.53
2023-05-16T16:57:45.883Z,5.15
2023-05-16T16:59:19.463Z,4.53
2023-05-16T17:00:53.225Z,5.00
2023-05-16T17:02:27.208Z,3.30
2023-05-16T17:04:00.828Z,4.15
2023-05-16T17:05:34.026Z,4.32
2023-05-16T17:07:07.675Z,5.68
2023-05-16T17:08:40.860Z,4.75
2023-05-16T17:10:14.199Z,4.22
2023-05-16T17:11:49.139Z,4.35
2023-05-16T17:13:22.578Z,3.88
2023-05-16T17:14:56.282Z,4.15
2023-05-16T17:16:29.860Z,5.43
2023-05-16T17:18:05.228Z,6.38
2023-05-16T17:19:38.855Z,4.80
2023-05-16T17:21:13.351Z,6.22
2023-05-16T17:22:48.371Z,5.15
2023-05-16T17:24:21.802Z,4.57
2023-05-16T17:25:55.267Z,4.72
2023-05-16T17:27:29.862Z,4.38
2023-05-16T17:29:04.361Z,4.47
2023-05-16T17:30:37.678Z,5.10
2023-05-16T17:32:10.959Z,4.90
2023-05-16T17:33:44.562Z,4.65
2023-05-16T17:35:18.411Z,4.88
2023-05-16T17:36:51.612Z,5.20
2023-05-16T17:38:25.299Z,4.28
2023-05-16T17:39:58.698Z,4.65
2023-05-16T17:41:32.540Z,5.63
2023-05-16T17:43:07.107Z,4.70
2023-05-16T17:44:41.241Z,4.45
2023-05-16T17:46:14.563Z,4.45
2023-05-16T17:47:47.928Z,8.38
2023-05-16T17:49:21.769Z,7.55
2023-05-16T17:50:56.075Z,30.77
2023-05-16T17:52:29.407Z,17.17
2023-05-16T17:54:03.896Z,14.02
2023-05-16T17:55:38.509Z,13.93
2023-05-16T17:57:13.176Z,11.60
2023-05-16T17:58:47.771Z,8.38
2023-05-16T18:00:22.626Z,7.00
2023-05-16T18:01:57.463Z,7.82
2023-05-16T18:03:31.182Z,7.78
2023-05-16T18:05:04.687Z,7.20
2023-05-16T18:06:38.926Z,5.65
2023-05-16T18:08:12.082Z,7.50
2023-05-16T18:09:45.642Z,7.45
2023-05-16T18:11:19.168Z,8.52
2023-05-16T18:12:52.470Z,8.32
2023-05-16T18:14:27.190Z,6.28
2023-05-16T18:16:00.627Z,7.10
2023-05-16T18:17:34.639Z,5.63
2023-05-16T18:19:08.848Z,6.40
2023-05-16T18:20:42.971Z,7.22
2023-05-16T18:22:16.306Z,6.82
2023-05-16T18:23:49.863Z,7.22
2023-05-16T18:25:23.153Z,7.88
2023-05-16T18:26:56.280Z,7.95
2023-05-16T18:28:29.924Z,9.05
2023-05-16T18:30:05.699Z,7.38
2023-05-16T18:31:41.358Z,8.60
2023-05-16T18:33:14.682Z,8.48
2023-05-16T18:34:48.103Z,8.30
2023-05-16T18:36:21.281Z,8.68
2023-05-16T18:37:54.488Z,8.38
2023-05-16T18:39:27.670Z,8.10
2023-05-16T18:41:01.235Z,9.25
2023-05-16T18:42:34.456Z,6.15
2023-05-16T18:44:07.690Z,7.20
2023-05-16T18:45:42.260Z,7.18
2023-05-16T18:47:16.275Z,6.65
2023-05-16T18:48:49.552Z,6.93
2023-05-16T18:50:22.982Z,5.95
2023-05-16T18:51:57.022Z,5.32
2023-05-16T18:53:30.309Z,5.88
2023-05-16T18:55:03.694Z,4.40
2023-05-16T18:56:37.282Z,6.72
2023-05-16T18:58:11.434Z,5.32
2023-05-16T18:59:44.962Z,3.33
2023-05-16T19:01:22.382Z,4.65
2023-05-16T19:02:55.934Z,5.20
2023-05-16T19:04:29.221Z,7.03
2023-05-16T19:06:02.730Z,7.60
2023-05-16T19:07:35.956Z,5.55
2023-05-16T19:09:09.348Z,5.13
2023-05-16T19:10:42.538Z,6.28
2023-05-16T19:12:15.912Z,6.65
2023-05-16T19:13:49.529Z,4.97
2023-05-16T19:15:21.829Z,6.78
2023-05-16T19:16:56.393Z,6.03
2023-05-16T19:18:29.966Z,6.70
2023-05-16T19:20:03.540Z,7.05
2023-05-16T19:21:37.003Z,8.90
2023-05-16T19:23:10.183Z,9.70
2023-05-16T19:24:43.544Z,8.05
2023-05-16T19:26:16.773Z,7.80
2023-05-16T19:27:50.071Z,8.30
2023-05-16T19:29:23.297Z,7.43
2023-05-16T19:30:56.774Z,6.03
2023-05-16T19:32:31.537Z,6.55
2023-05-16T19:34:05.327Z,6.18
2023-05-16T19:35:39.653Z,5.03
2023-05-16T19:37:17.581Z,4.82
2023-05-16T19:38:50.958Z,5.35
2023-05-16T19:40:24.108Z,4.43
2023-05-16T19:42:06.285Z,4.60
2023-05-16T19:43:40.684Z,4.80
2023-05-16T19:45:13.860Z,5.55
2023-05-16T19:46:47.111Z,6.75
2023-05-16T19:48:21.780Z,6.60
2023-05-16T19:49:55.183Z,5.85
2023-05-16T19:51:40.838Z,5.72
2023-05-16T19:53:15.381Z,5.65
2023-05-16T19:54:48.618Z,6.63
2023-05-16T19:56:22.489Z,5.70
2023-05-16T19:57:55.986Z,6.45
2023-05-16T19:59:29.530Z,6.55
2023-05-16T20:01:02.921Z,5.40
2023-05-16T20:02:36.400Z,4.68
2023-05-16T20:04:11.667Z,4.63
2023-05-16T20:05:45.193Z,4.57
2023-05-16T20:07:18.374Z,4.65
2023-05-16T20:08:51.721Z,4.88
2023-05-16T20:10:25.095Z,5.70
2023-05-16T20:11:59.100Z,4.97
2023-05-16T20:13:32.595Z,4.47
2023-05-16T20:15:08.859Z,4.95
2023-05-16T20:16:42.114Z,4.38
2023-05-16T20:18:15.430Z,3.92
2023-05-16T20:19:50.097Z,4.30
2023-05-16T20:21:23.547Z,4.28
2023-05-16T20:22:56.767Z,4.65
2023-05-16T20:24:29.953Z,4.47
2023-05-16T20:26:03.114Z,4.30
2023-05-16T20:27:36.932Z,5.22
2023-05-16T20:29:10.228Z,4.93
2023-05-16T20:30:43.359Z,4.45
2023-05-16T20:32:16.640Z,5.15
2023-05-16T20:33:50.258Z,4.68
2023-05-16T20:35:24.962Z,7.80
2023-05-16T20:36:58.461Z,7.60
2023-05-16T20:38:31.970Z,9.15
2023-05-16T20:40:07.239Z,9.30
2023-05-16T20:41:40.481Z,9.50
2023-05-16T20:43:13.656Z,9.68
2023-05-16T20:44:46.953Z,7.95
2023-05-16T20:46:20.401Z,5.90
2023-05-16T20:47:53.647Z,4.70
2023-05-16T20:49:26.897Z,5.32
2023-05-16T20:51:02.218Z,3.75
2023-05-16T20:52:35.581Z,3.88
2023-05-16T20:54:08.932Z,4.18
2023-05-16T20:55:42.168Z,4.55